< < Back
Terminal Aerodrome Forecast


Current Version              Previous Versions:   1  2  3  4  5  6  7  8  9  

Terminal Aerodrome Forecast

482
FTUS42 KMLB 231457 AAA
TAFMCO
TAF AMD
KMCO 231457Z 2315/2412 04004KT P6SM FEW040
     FM231800 07008KT P6SM VCTS SCT050CB
     FM232100 07008KT P6SM SCT050
     FM240100 05004KT P6SM SCT250=

Latest METAR

488
SAUS70 KWBC 240200 RRH
MTRMCO
METAR KMCO 240153Z 06007KT 10SM FEW020 BKN300 28/24 A3013 RMK AO2 SLP202
T02830239


USA.gov is the U.S. government's official web portal to all federal, state and local government web resources and services.